<?xml version="1.0" encoding="UTF-8" standalone="no" ?>
<gpx xmlns="http://www.topografix.com/GPX/1/1" xmlns:xsi="http://www.w3.org/2001/XMLSchema-instance" xsi:schemaLocation="http://www.topografix.com/GPX/1/1 http://www.topografix.com/GPX/1/1/gpx.xsd" version="1.1" creator="VisuGPX - https://www.visugpx.com">
  <metadata>
    <name>Tour de Monnières</name>
    <desc><![CDATA[Tour de Monnières entre vignes et bois et moulins]]></desc>
  </metadata>
  <trk>
    <name><![CDATA[2017-04-06T18:20:28Z1]]></name>
    <desc><![CDATA[À partir de la Piste Active]]></desc>
    <trkseg>
      <trkpt lat="47.1315" lon="-1.35425">
        <ele>27</ele>
        <time>2017-04-07T13:18:18Z</time>
      </trkpt>
      <trkpt lat="47.13158" lon="-1.35432">
        <ele>27.398438</ele>
        <time>2017-04-07T13:31:11Z</time>
      </trkpt>
      <trkpt lat="47.13163" lon="-1.35444">
        <ele>27.699219</ele>
        <time>2017-04-07T13:32:43Z</time>
      </trkpt>
      <trkpt lat="47.13168" lon="-1.35456">
        <ele>25</ele>
        <time>2017-04-07T13:32:53Z</time>
      </trkpt>
      <trkpt lat="47.13174" lon="-1.35467">
        <ele>25.699219</ele>
        <time>2017-04-07T13:33:04Z</time>
      </trkpt>
      <trkpt lat="47.13186" lon="-1.35487">
        <ele>30</ele>
        <time>2017-04-07T13:33:19Z</time>
      </trkpt>
      <trkpt lat="47.13183" lon="-1.35501">
        <ele>29</ele>
        <time>2017-04-07T13:33:30Z</time>
      </trkpt>
      <trkpt lat="47.13187" lon="-1.35514">
        <ele>27.796875</ele>
        <time>2017-04-07T13:33:39Z</time>
      </trkpt>
      <trkpt lat="47.13194" lon="-1.3554">
        <ele>31.5</ele>
        <time>2017-04-07T13:33:58Z</time>
      </trkpt>
      <trkpt lat="47.13201" lon="-1.3555">
        <ele>34.398438</ele>
        <time>2017-04-07T13:34:13Z</time>
      </trkpt>
      <trkpt lat="47.1321" lon="-1.35554">
        <ele>32.5</ele>
        <time>2017-04-07T13:34:24Z</time>
      </trkpt>
      <trkpt lat="47.13218" lon="-1.35562">
        <ele>27.898438</ele>
        <time>2017-04-07T13:34:34Z</time>
      </trkpt>
      <trkpt lat="47.13227" lon="-1.35564">
        <ele>27.5</ele>
        <time>2017-04-07T13:34:44Z</time>
      </trkpt>
      <trkpt lat="47.13236" lon="-1.35562">
        <ele>29.699219</ele>
        <time>2017-04-07T13:34:50Z</time>
      </trkpt>
      <trkpt lat="47.13245" lon="-1.35564">
        <ele>29.597656</ele>
        <time>2017-04-07T13:34:59Z</time>
      </trkpt>
      <trkpt lat="47.13255" lon="-1.35561">
        <ele>27.699219</ele>
        <time>2017-04-07T13:35:09Z</time>
      </trkpt>
      <trkpt lat="47.13265" lon="-1.35561">
        <ele>27.097656</ele>
        <time>2017-04-07T13:35:16Z</time>
      </trkpt>
      <trkpt lat="47.13303" lon="-1.35558">
        <ele>23.597656</ele>
        <time>2017-04-07T13:35:44Z</time>
      </trkpt>
      <trkpt lat="47.13313" lon="-1.35562">
        <ele>23</ele>
        <time>2017-04-07T13:35:52Z</time>
      </trkpt>
      <trkpt lat="47.1332" lon="-1.35572">
        <ele>21.398438</ele>
        <time>2017-04-07T13:36:00Z</time>
      </trkpt>
      <trkpt lat="47.13325" lon="-1.35584">
        <ele>20.199219</ele>
        <time>2017-04-07T13:36:09Z</time>
      </trkpt>
      <trkpt lat="47.13331" lon="-1.35595">
        <ele>18.699219</ele>
        <time>2017-04-07T13:36:17Z</time>
      </trkpt>
      <trkpt lat="47.1334" lon="-1.35601">
        <ele>17.796875</ele>
        <time>2017-04-07T13:36:26Z</time>
      </trkpt>
      <trkpt lat="47.1335" lon="-1.356">
        <ele>17.296875</ele>
        <time>2017-04-07T13:36:34Z</time>
      </trkpt>
      <trkpt lat="47.1336" lon="-1.35598">
        <ele>17.199219</ele>
        <time>2017-04-07T13:36:42Z</time>
      </trkpt>
      <trkpt lat="47.13369" lon="-1.35595">
        <ele>17.898438</ele>
        <time>2017-04-07T13:36:50Z</time>
      </trkpt>
      <trkpt lat="47.13475" lon="-1.35557">
        <ele>20.199219</ele>
        <time>2017-04-07T13:38:17Z</time>
      </trkpt>
      <trkpt lat="47.13502" lon="-1.35546">
        <ele>21.5</ele>
        <time>2017-04-07T13:38:40Z</time>
      </trkpt>
      <trkpt lat="47.13512" lon="-1.35544">
        <ele>19.398438</ele>
        <time>2017-04-07T13:38:49Z</time>
      </trkpt>
      <trkpt lat="47.13531" lon="-1.35537">
        <ele>17.699219</ele>
        <time>2017-04-07T13:39:07Z</time>
      </trkpt>
      <trkpt lat="47.13541" lon="-1.35536">
        <ele>18.699219</ele>
        <time>2017-04-07T13:39:15Z</time>
      </trkpt>
      <trkpt lat="47.13579" lon="-1.35533">
        <ele>15.898438</ele>
        <time>2017-04-07T13:39:47Z</time>
      </trkpt>
      <trkpt lat="47.13598" lon="-1.35528">
        <ele>16.097656</ele>
        <time>2017-04-07T13:40:04Z</time>
      </trkpt>
      <trkpt lat="47.13616" lon="-1.35521">
        <ele>15.5</ele>
        <time>2017-04-07T13:40:20Z</time>
      </trkpt>
      <trkpt lat="47.13652" lon="-1.35505">
        <ele>15.796875</ele>
        <time>2017-04-07T13:40:52Z</time>
      </trkpt>
      <trkpt lat="47.13661" lon="-1.35508">
        <ele>15.199219</ele>
        <time>2017-04-07T13:41:01Z</time>
      </trkpt>
      <trkpt lat="47.13664" lon="-1.35522">
        <ele>14.199219</ele>
        <time>2017-04-07T13:41:10Z</time>
      </trkpt>
      <trkpt lat="47.13718" lon="-1.35797">
        <ele>6.699219</ele>
        <time>2017-04-07T13:43:48Z</time>
      </trkpt>
      <trkpt lat="47.1371" lon="-1.35871">
        <ele>13.296875</ele>
        <time>2017-04-07T13:45:04Z</time>
      </trkpt>
      <trkpt lat="47.13704" lon="-1.35881">
        <ele>7</ele>
        <time>2017-04-07T13:46:19Z</time>
      </trkpt>
      <trkpt lat="47.13694" lon="-1.35878">
        <ele>7.296875</ele>
        <time>2017-04-07T13:46:30Z</time>
      </trkpt>
      <trkpt lat="47.13656" lon="-1.35864">
        <ele>6.699219</ele>
        <time>2017-04-07T13:47:03Z</time>
      </trkpt>
      <trkpt lat="47.13638" lon="-1.35855">
        <ele>7.398438</ele>
        <time>2017-04-07T13:47:19Z</time>
      </trkpt>
      <trkpt lat="47.13565" lon="-1.35822">
        <ele>10.296875</ele>
        <time>2017-04-07T13:48:24Z</time>
      </trkpt>
      <trkpt lat="47.13556" lon="-1.35826">
        <ele>10.398438</ele>
        <time>2017-04-07T13:48:32Z</time>
      </trkpt>
      <trkpt lat="47.13551" lon="-1.35838">
        <ele>12.199219</ele>
        <time>2017-04-07T13:48:40Z</time>
      </trkpt>
      <trkpt lat="47.13548" lon="-1.35851">
        <ele>13.898438</ele>
        <time>2017-04-07T13:48:48Z</time>
      </trkpt>
      <trkpt lat="47.13542" lon="-1.35863">
        <ele>13.796875</ele>
        <time>2017-04-07T13:48:56Z</time>
      </trkpt>
      <trkpt lat="47.13526" lon="-1.359">
        <ele>17.796875</ele>
        <time>2017-04-07T13:49:21Z</time>
      </trkpt>
      <trkpt lat="47.13522" lon="-1.35912">
        <ele>18.5</ele>
        <time>2017-04-07T13:49:31Z</time>
      </trkpt>
      <trkpt lat="47.13518" lon="-1.35925">
        <ele>16.296875</ele>
        <time>2017-04-07T13:49:41Z</time>
      </trkpt>
      <trkpt lat="47.1352" lon="-1.35939">
        <ele>13.898438</ele>
        <time>2017-04-07T13:49:54Z</time>
      </trkpt>
      <trkpt lat="47.13521" lon="-1.35953">
        <ele>13.5</ele>
        <time>2017-04-07T13:50:10Z</time>
      </trkpt>
      <trkpt lat="47.13526" lon="-1.35965">
        <ele>12.359375</ele>
        <time>2017-04-07T13:50:20Z</time>
      </trkpt>
      <trkpt lat="47.1353" lon="-1.35977">
        <ele>11.296875</ele>
        <time>2017-04-07T13:50:33Z</time>
      </trkpt>
      <trkpt lat="47.13537" lon="-1.35986">
        <ele>9.699219</ele>
        <time>2017-04-07T13:50:41Z</time>
      </trkpt>
      <trkpt lat="47.13551" lon="-1.36004">
        <ele>8.097656</ele>
        <time>2017-04-07T13:50:57Z</time>
      </trkpt>
      <trkpt lat="47.13558" lon="-1.36014">
        <ele>7.699219</ele>
        <time>2017-04-07T13:51:04Z</time>
      </trkpt>
      <trkpt lat="47.13564" lon="-1.36024">
        <ele>8.398438</ele>
        <time>2017-04-07T13:51:11Z</time>
      </trkpt>
      <trkpt lat="47.13571" lon="-1.36034">
        <ele>6.796875</ele>
        <time>2017-04-07T13:51:18Z</time>
      </trkpt>
      <trkpt lat="47.13576" lon="-1.36045">
        <ele>7.199219</ele>
        <time>2017-04-07T13:51:25Z</time>
      </trkpt>
      <trkpt lat="47.13583" lon="-1.36054">
        <ele>8.597656</ele>
        <time>2017-04-07T13:51:31Z</time>
      </trkpt>
      <trkpt lat="47.13588" lon="-1.36067">
        <ele>8.898438</ele>
        <time>2017-04-07T13:51:38Z</time>
      </trkpt>
      <trkpt lat="47.13591" lon="-1.36081">
        <ele>8.699219</ele>
        <time>2017-04-07T13:51:48Z</time>
      </trkpt>
      <trkpt lat="47.13594" lon="-1.36094">
        <ele>7.898438</ele>
        <time>2017-04-07T13:51:55Z</time>
      </trkpt>
      <trkpt lat="47.13595" lon="-1.36107">
        <ele>7.5</ele>
        <time>2017-04-07T13:52:02Z</time>
      </trkpt>
      <trkpt lat="47.13596" lon="-1.36121">
        <ele>9.398438</ele>
        <time>2017-04-07T13:52:09Z</time>
      </trkpt>
      <trkpt lat="47.13598" lon="-1.36135">
        <ele>10.898438</ele>
        <time>2017-04-07T13:52:16Z</time>
      </trkpt>
      <trkpt lat="47.13598" lon="-1.36149">
        <ele>12.699219</ele>
        <time>2017-04-07T13:52:23Z</time>
      </trkpt>
      <trkpt lat="47.13598" lon="-1.36163">
        <ele>14.5</ele>
        <time>2017-04-07T13:52:33Z</time>
      </trkpt>
      <trkpt lat="47.136" lon="-1.36177">
        <ele>14.398438</ele>
        <time>2017-04-07T13:52:42Z</time>
      </trkpt>
      <trkpt lat="47.13599" lon="-1.36191">
        <ele>15.199219</ele>
        <time>2017-04-07T13:52:49Z</time>
      </trkpt>
      <trkpt lat="47.13594" lon="-1.36233">
        <ele>11.097656</ele>
        <time>2017-04-07T13:53:10Z</time>
      </trkpt>
      <trkpt lat="47.13592" lon="-1.36248">
        <ele>8.5</ele>
        <time>2017-04-07T13:53:18Z</time>
      </trkpt>
      <trkpt lat="47.13592" lon="-1.36262">
        <ele>6.796875</ele>
        <time>2017-04-07T13:53:26Z</time>
      </trkpt>
      <trkpt lat="47.13593" lon="-1.36276">
        <ele>6.898438</ele>
        <time>2017-04-07T13:53:36Z</time>
      </trkpt>
      <trkpt lat="47.13596" lon="-1.36289">
        <ele>8.597656</ele>
        <time>2017-04-07T13:53:44Z</time>
      </trkpt>
      <trkpt lat="47.13604" lon="-1.36315">
        <ele>11.699219</ele>
        <time>2017-04-07T13:53:58Z</time>
      </trkpt>
      <trkpt lat="47.13609" lon="-1.36328">
        <ele>14.199219</ele>
        <time>2017-04-07T13:54:05Z</time>
      </trkpt>
      <trkpt lat="47.13627" lon="-1.36378">
        <ele>21</ele>
        <time>2017-04-07T13:54:31Z</time>
      </trkpt>
      <trkpt lat="47.13629" lon="-1.36392">
        <ele>20.597656</ele>
        <time>2017-04-07T13:54:38Z</time>
      </trkpt>
      <trkpt lat="47.13628" lon="-1.36406">
        <ele>19.199219</ele>
        <time>2017-04-07T13:54:45Z</time>
      </trkpt>
      <trkpt lat="47.13626" lon="-1.36434">
        <ele>18.296875</ele>
        <time>2017-04-07T13:54:58Z</time>
      </trkpt>
      <trkpt lat="47.13626" lon="-1.36448">
        <ele>17.796875</ele>
        <time>2017-04-07T13:55:05Z</time>
      </trkpt>
      <trkpt lat="47.13624" lon="-1.36463">
        <ele>17.898438</ele>
        <time>2017-04-07T13:55:12Z</time>
      </trkpt>
      <trkpt lat="47.13622" lon="-1.36477">
        <ele>18.398438</ele>
        <time>2017-04-07T13:55:19Z</time>
      </trkpt>
      <trkpt lat="47.13616" lon="-1.3649">
        <ele>14.796875</ele>
        <time>2017-04-07T13:55:26Z</time>
      </trkpt>
      <trkpt lat="47.1361" lon="-1.36501">
        <ele>10.398438</ele>
        <time>2017-04-07T13:55:35Z</time>
      </trkpt>
      <trkpt lat="47.13608" lon="-1.36516">
        <ele>8.199219</ele>
        <time>2017-04-07T13:55:44Z</time>
      </trkpt>
      <trkpt lat="47.1361" lon="-1.3653">
        <ele>6</ele>
        <time>2017-04-07T13:55:54Z</time>
      </trkpt>
      <trkpt lat="47.13616" lon="-1.3657">
        <ele>7.699219</ele>
        <time>2017-04-07T13:56:21Z</time>
      </trkpt>
      <trkpt lat="47.13622" lon="-1.36582">
        <ele>8.796875</ele>
        <time>2017-04-07T13:56:29Z</time>
      </trkpt>
      <trkpt lat="47.13662" lon="-1.36662">
        <ele>-1.898438</ele>
        <time>2017-04-07T13:57:20Z</time>
      </trkpt>
      <trkpt lat="47.13668" lon="-1.36672">
        <ele>1.199219</ele>
        <time>2017-04-07T13:57:28Z</time>
      </trkpt>
      <trkpt lat="47.13675" lon="-1.36681">
        <ele>3.699219</ele>
        <time>2017-04-07T13:57:36Z</time>
      </trkpt>
      <trkpt lat="47.13681" lon="-1.36691">
        <ele>5.898438</ele>
        <time>2017-04-07T13:57:44Z</time>
      </trkpt>
      <trkpt lat="47.13689" lon="-1.36699">
        <ele>10</ele>
        <time>2017-04-07T13:57:50Z</time>
      </trkpt>
      <trkpt lat="47.13698" lon="-1.36704">
        <ele>13.097656</ele>
        <time>2017-04-07T13:57:56Z</time>
      </trkpt>
      <trkpt lat="47.13717" lon="-1.36715">
        <ele>23.597656</ele>
        <time>2017-04-07T13:58:09Z</time>
      </trkpt>
      <trkpt lat="47.13735" lon="-1.36723">
        <ele>25.597656</ele>
        <time>2017-04-07T13:58:31Z</time>
      </trkpt>
      <trkpt lat="47.13744" lon="-1.36724">
        <ele>24.296875</ele>
        <time>2017-04-07T13:58:40Z</time>
      </trkpt>
      <trkpt lat="47.13753" lon="-1.36728">
        <ele>20.597656</ele>
        <time>2017-04-07T13:58:49Z</time>
      </trkpt>
      <trkpt lat="47.13761" lon="-1.36735">
        <ele>18.597656</ele>
        <time>2017-04-07T13:58:58Z</time>
      </trkpt>
      <trkpt lat="47.13769" lon="-1.36741">
        <ele>14.097656</ele>
        <time>2017-04-07T13:59:05Z</time>
      </trkpt>
      <trkpt lat="47.13776" lon="-1.36751">
        <ele>9</ele>
        <time>2017-04-07T13:59:14Z</time>
      </trkpt>
      <trkpt lat="47.13782" lon="-1.36761">
        <ele>7.796875</ele>
        <time>2017-04-07T13:59:21Z</time>
      </trkpt>
      <trkpt lat="47.13791" lon="-1.3677">
        <ele>9.398438</ele>
        <time>2017-04-07T13:59:30Z</time>
      </trkpt>
      <trkpt lat="47.13806" lon="-1.36785">
        <ele>5.097656</ele>
        <time>2017-04-07T13:59:46Z</time>
      </trkpt>
      <trkpt lat="47.13812" lon="-1.36797">
        <ele>1.699219</ele>
        <time>2017-04-07T13:59:54Z</time>
      </trkpt>
      <trkpt lat="47.13823" lon="-1.3682">
        <ele>1.199219</ele>
        <time>2017-04-07T14:00:08Z</time>
      </trkpt>
      <trkpt lat="47.1383" lon="-1.3683">
        <ele>0.296875</ele>
        <time>2017-04-07T14:00:15Z</time>
      </trkpt>
      <trkpt lat="47.13836" lon="-1.36842">
        <ele>-0.796875</ele>
        <time>2017-04-07T14:00:22Z</time>
      </trkpt>
      <trkpt lat="47.13851" lon="-1.36877">
        <ele>6.199219</ele>
        <time>2017-04-07T14:00:43Z</time>
      </trkpt>
      <trkpt lat="47.13853" lon="-1.36891">
        <ele>7.398438</ele>
        <time>2017-04-07T14:00:51Z</time>
      </trkpt>
      <trkpt lat="47.13853" lon="-1.36906">
        <ele>6.296875</ele>
        <time>2017-04-07T14:00:59Z</time>
      </trkpt>
      <trkpt lat="47.13856" lon="-1.36919">
        <ele>5.597656</ele>
        <time>2017-04-07T14:01:07Z</time>
      </trkpt>
      <trkpt lat="47.13859" lon="-1.36931">
        <ele>4.796875</ele>
        <time>2017-04-07T14:01:14Z</time>
      </trkpt>
      <trkpt lat="47.13871" lon="-1.3697">
        <ele>0.398438</ele>
        <time>2017-04-07T14:01:36Z</time>
      </trkpt>
      <trkpt lat="47.13877" lon="-1.36981">
        <ele>0.5</ele>
        <time>2017-04-07T14:01:43Z</time>
      </trkpt>
      <trkpt lat="47.13883" lon="-1.36992">
        <ele>2.199219</ele>
        <time>2017-04-07T14:01:50Z</time>
      </trkpt>
      <trkpt lat="47.13892" lon="-1.37002">
        <ele>1.5</ele>
        <time>2017-04-07T14:02:03Z</time>
      </trkpt>
      <trkpt lat="47.13923" lon="-1.37042">
        <ele>3.5</ele>
        <time>2017-04-07T14:02:28Z</time>
      </trkpt>
      <trkpt lat="47.1393" lon="-1.37053">
        <ele>3.097656</ele>
        <time>2017-04-07T14:02:34Z</time>
      </trkpt>
      <trkpt lat="47.13954" lon="-1.37098">
        <ele>8.5</ele>
        <time>2017-04-07T14:02:58Z</time>
      </trkpt>
      <trkpt lat="47.13965" lon="-1.37121">
        <ele>13</ele>
        <time>2017-04-07T14:03:11Z</time>
      </trkpt>
      <trkpt lat="47.13968" lon="-1.37134">
        <ele>16.199219</ele>
        <time>2017-04-07T14:03:18Z</time>
      </trkpt>
      <trkpt lat="47.13972" lon="-1.37148">
        <ele>17.097656</ele>
        <time>2017-04-07T14:03:26Z</time>
      </trkpt>
      <trkpt lat="47.13973" lon="-1.37162">
        <ele>18.296875</ele>
        <time>2017-04-07T14:03:34Z</time>
      </trkpt>
      <trkpt lat="47.13975" lon="-1.37176">
        <ele>17.5</ele>
        <time>2017-04-07T14:03:43Z</time>
      </trkpt>
      <trkpt lat="47.13978" lon="-1.37189">
        <ele>19</ele>
        <time>2017-04-07T14:03:50Z</time>
      </trkpt>
      <trkpt lat="47.13979" lon="-1.37202">
        <ele>18.796875</ele>
        <time>2017-04-07T14:03:58Z</time>
      </trkpt>
      <trkpt lat="47.13975" lon="-1.37214">
        <ele>21.199219</ele>
        <time>2017-04-07T14:04:11Z</time>
      </trkpt>
      <trkpt lat="47.13966" lon="-1.37219">
        <ele>27.097656</ele>
        <time>2017-04-07T14:04:22Z</time>
      </trkpt>
      <trkpt lat="47.13947" lon="-1.3723">
        <ele>39.597656</ele>
        <time>2017-04-07T14:04:41Z</time>
      </trkpt>
      <trkpt lat="47.13938" lon="-1.37232">
        <ele>45.5</ele>
        <time>2017-04-07T14:04:50Z</time>
      </trkpt>
      <trkpt lat="47.13898" lon="-1.37237">
        <ele>49.5</ele>
        <time>2017-04-07T14:05:23Z</time>
      </trkpt>
      <trkpt lat="47.1386" lon="-1.37239">
        <ele>37.097656</ele>
        <time>2017-04-07T14:05:47Z</time>
      </trkpt>
      <trkpt lat="47.13851" lon="-1.37237">
        <ele>34.699219</ele>
        <time>2017-04-07T14:05:53Z</time>
      </trkpt>
      <trkpt lat="47.13842" lon="-1.37239">
        <ele>31.5</ele>
        <time>2017-04-07T14:05:59Z</time>
      </trkpt>
      <trkpt lat="47.13832" lon="-1.37238">
        <ele>29.699219</ele>
        <time>2017-04-07T14:06:05Z</time>
      </trkpt>
      <trkpt lat="47.13814" lon="-1.37235">
        <ele>28.097656</ele>
        <time>2017-04-07T14:06:18Z</time>
      </trkpt>
      <trkpt lat="47.13804" lon="-1.37236">
        <ele>27.5</ele>
        <time>2017-04-07T14:06:25Z</time>
      </trkpt>
      <trkpt lat="47.13795" lon="-1.37236">
        <ele>27</ele>
        <time>2017-04-07T14:06:32Z</time>
      </trkpt>
      <trkpt lat="47.13785" lon="-1.37234">
        <ele>28.296875</ele>
        <time>2017-04-07T14:06:40Z</time>
      </trkpt>
      <trkpt lat="47.13775" lon="-1.37232">
        <ele>31.097656</ele>
        <time>2017-04-07T14:06:48Z</time>
      </trkpt>
      <trkpt lat="47.13767" lon="-1.37227">
        <ele>25.097656</ele>
        <time>2017-04-07T14:06:56Z</time>
      </trkpt>
      <trkpt lat="47.13771" lon="-1.37215">
        <ele>20.375</ele>
        <time>2017-04-07T14:07:15Z</time>
      </trkpt>
      <trkpt lat="47.13779" lon="-1.37208">
        <ele>16.898438</ele>
        <time>2017-04-07T14:07:29Z</time>
      </trkpt>
      <trkpt lat="47.13788" lon="-1.37204">
        <ele>16.097656</ele>
        <time>2017-04-07T14:07:37Z</time>
      </trkpt>
      <trkpt lat="47.13797" lon="-1.372">
        <ele>15.296875</ele>
        <time>2017-04-07T14:07:44Z</time>
      </trkpt>
      <trkpt lat="47.13806" lon="-1.37199">
        <ele>17.296875</ele>
        <time>2017-04-07T14:07:52Z</time>
      </trkpt>
      <trkpt lat="47.13844" lon="-1.37194">
        <ele>20.898438</ele>
        <time>2017-04-07T14:08:24Z</time>
      </trkpt>
      <trkpt lat="47.13853" lon="-1.3719">
        <ele>23.5</ele>
        <time>2017-04-07T14:08:31Z</time>
      </trkpt>
      <trkpt lat="47.1386" lon="-1.3718">
        <ele>21.898438</ele>
        <time>2017-04-07T14:08:39Z</time>
      </trkpt>
      <trkpt lat="47.1386" lon="-1.37167">
        <ele>20.5</ele>
        <time>2017-04-07T14:08:50Z</time>
      </trkpt>
      <trkpt lat="47.13859" lon="-1.37153">
        <ele>18.699219</ele>
        <time>2017-04-07T14:09:02Z</time>
      </trkpt>
      <trkpt lat="47.13855" lon="-1.37141">
        <ele>18.398438</ele>
        <time>2017-04-07T14:09:12Z</time>
      </trkpt>
      <trkpt lat="47.13848" lon="-1.3713">
        <ele>19.296875</ele>
        <time>2017-04-07T14:09:22Z</time>
      </trkpt>
      <trkpt lat="47.13841" lon="-1.37122">
        <ele>21.699219</ele>
        <time>2017-04-07T14:09:31Z</time>
      </trkpt>
      <trkpt lat="47.13832" lon="-1.37115">
        <ele>23.597656</ele>
        <time>2017-04-07T14:09:41Z</time>
      </trkpt>
      <trkpt lat="47.13823" lon="-1.37109">
        <ele>26.296875</ele>
        <time>2017-04-07T14:09:51Z</time>
      </trkpt>
      <trkpt lat="47.13814" lon="-1.37107">
        <ele>29.5</ele>
        <time>2017-04-07T14:10:00Z</time>
      </trkpt>
      <trkpt lat="47.13786" lon="-1.37101">
        <ele>34.199219</ele>
        <time>2017-04-07T14:10:25Z</time>
      </trkpt>
      <trkpt lat="47.13776" lon="-1.37096">
        <ele>33.796875</ele>
        <time>2017-04-07T14:10:34Z</time>
      </trkpt>
      <trkpt lat="47.13767" lon="-1.37092">
        <ele>35.296875</ele>
        <time>2017-04-07T14:10:42Z</time>
      </trkpt>
      <trkpt lat="47.13759" lon="-1.37083">
        <ele>36</ele>
        <time>2017-04-07T14:10:50Z</time>
      </trkpt>
      <trkpt lat="47.13752" lon="-1.37074">
        <ele>36.597656</ele>
        <time>2017-04-07T14:10:57Z</time>
      </trkpt>
      <trkpt lat="47.13739" lon="-1.37054">
        <ele>35.796875</ele>
        <time>2017-04-07T14:11:12Z</time>
      </trkpt>
      <trkpt lat="47.13724" lon="-1.37036">
        <ele>32.699219</ele>
        <time>2017-04-07T14:11:29Z</time>
      </trkpt>
      <trkpt lat="47.1364" lon="-1.36924">
        <ele>36.097656</ele>
        <time>2017-04-07T14:13:07Z</time>
      </trkpt>
      <trkpt lat="47.13634" lon="-1.36913">
        <ele>37.699219</ele>
        <time>2017-04-07T14:13:15Z</time>
      </trkpt>
      <trkpt lat="47.1363" lon="-1.369">
        <ele>38.199219</ele>
        <time>2017-04-07T14:13:24Z</time>
      </trkpt>
      <trkpt lat="47.13624" lon="-1.36888">
        <ele>38.597656</ele>
        <time>2017-04-07T14:13:32Z</time>
      </trkpt>
      <trkpt lat="47.13618" lon="-1.36878">
        <ele>40.097656</ele>
        <time>2017-04-07T14:13:40Z</time>
      </trkpt>
      <trkpt lat="47.13611" lon="-1.36868">
        <ele>39.5</ele>
        <time>2017-04-07T14:13:49Z</time>
      </trkpt>
      <trkpt lat="47.13602" lon="-1.36858">
        <ele>38.597656</ele>
        <time>2017-04-07T14:14:35Z</time>
      </trkpt>
      <trkpt lat="47.13592" lon="-1.36859">
        <ele>37.699219</ele>
        <time>2017-04-07T14:14:44Z</time>
      </trkpt>
      <trkpt lat="47.13583" lon="-1.36861">
        <ele>38.296875</ele>
        <time>2017-04-07T14:14:52Z</time>
      </trkpt>
      <trkpt lat="47.13574" lon="-1.36867">
        <ele>39.296875</ele>
        <time>2017-04-07T14:14:59Z</time>
      </trkpt>
      <trkpt lat="47.13546" lon="-1.36882">
        <ele>39</ele>
        <time>2017-04-07T14:15:21Z</time>
      </trkpt>
      <trkpt lat="47.13537" lon="-1.36882">
        <ele>39.5</ele>
        <time>2017-04-07T14:15:27Z</time>
      </trkpt>
      <trkpt lat="47.13526" lon="-1.36882">
        <ele>39.699219</ele>
        <time>2017-04-07T14:15:34Z</time>
      </trkpt>
      <trkpt lat="47.13498" lon="-1.36879">
        <ele>39.398438</ele>
        <time>2017-04-07T14:15:55Z</time>
      </trkpt>
      <trkpt lat="47.13489" lon="-1.3687">
        <ele>39.898438</ele>
        <time>2017-04-07T14:16:03Z</time>
      </trkpt>
      <trkpt lat="47.13485" lon="-1.36858">
        <ele>40.699219</ele>
        <time>2017-04-07T14:16:10Z</time>
      </trkpt>
      <trkpt lat="47.13478" lon="-1.36832">
        <ele>42.296875</ele>
        <time>2017-04-07T14:16:24Z</time>
      </trkpt>
      <trkpt lat="47.13444" lon="-1.36698">
        <ele>46.199219</ele>
        <time>2017-04-07T14:17:38Z</time>
      </trkpt>
      <trkpt lat="47.13439" lon="-1.36671">
        <ele>47.398438</ele>
        <time>2017-04-07T14:17:52Z</time>
      </trkpt>
      <trkpt lat="47.13434" lon="-1.36658">
        <ele>46.597656</ele>
        <time>2017-04-07T14:18:01Z</time>
      </trkpt>
      <trkpt lat="47.13428" lon="-1.36648">
        <ele>45.296875</ele>
        <time>2017-04-07T14:18:09Z</time>
      </trkpt>
      <trkpt lat="47.13419" lon="-1.36643">
        <ele>46.296875</ele>
        <time>2017-04-07T14:18:17Z</time>
      </trkpt>
      <trkpt lat="47.13411" lon="-1.36629">
        <ele>45</ele>
        <time>2017-04-07T14:19:18Z</time>
      </trkpt>
      <trkpt lat="47.13407" lon="-1.36616">
        <ele>42.898438</ele>
        <time>2017-04-07T14:19:27Z</time>
      </trkpt>
      <trkpt lat="47.13401" lon="-1.36605">
        <ele>42.796875</ele>
        <time>2017-04-07T14:19:36Z</time>
      </trkpt>
      <trkpt lat="47.13389" lon="-1.36581">
        <ele>42.699219</ele>
        <time>2017-04-07T14:19:53Z</time>
      </trkpt>
      <trkpt lat="47.13358" lon="-1.36508">
        <ele>42.5</ele>
        <time>2017-04-07T14:20:40Z</time>
      </trkpt>
      <trkpt lat="47.13349" lon="-1.36508">
        <ele>44</ele>
        <time>2017-04-07T14:20:50Z</time>
      </trkpt>
      <trkpt lat="47.13341" lon="-1.36516">
        <ele>45.898438</ele>
        <time>2017-04-07T14:20:59Z</time>
      </trkpt>
      <trkpt lat="47.13307" lon="-1.36545">
        <ele>46</ele>
        <time>2017-04-07T14:21:29Z</time>
      </trkpt>
      <trkpt lat="47.13282" lon="-1.36564">
        <ele>45.699219</ele>
        <time>2017-04-07T14:21:50Z</time>
      </trkpt>
      <trkpt lat="47.13239" lon="-1.36593">
        <ele>47.796875</ele>
        <time>2017-04-07T14:22:25Z</time>
      </trkpt>
      <trkpt lat="47.13231" lon="-1.36601">
        <ele>49</ele>
        <time>2017-04-07T14:22:32Z</time>
      </trkpt>
      <trkpt lat="47.13223" lon="-1.36609">
        <ele>48.597656</ele>
        <time>2017-04-07T14:22:39Z</time>
      </trkpt>
      <trkpt lat="47.13216" lon="-1.36619">
        <ele>48.699219</ele>
        <time>2017-04-07T14:22:47Z</time>
      </trkpt>
      <trkpt lat="47.13207" lon="-1.36627">
        <ele>49.097656</ele>
        <time>2017-04-07T14:22:55Z</time>
      </trkpt>
      <trkpt lat="47.13199" lon="-1.36637">
        <ele>49.796875</ele>
        <time>2017-04-07T14:23:03Z</time>
      </trkpt>
      <trkpt lat="47.1316" lon="-1.36682">
        <ele>48</ele>
        <time>2017-04-07T14:23:42Z</time>
      </trkpt>
      <trkpt lat="47.13151" lon="-1.36683">
        <ele>46.898438</ele>
        <time>2017-04-07T14:23:50Z</time>
      </trkpt>
      <trkpt lat="47.13147" lon="-1.3667">
        <ele>46.296875</ele>
        <time>2017-04-07T14:24:00Z</time>
      </trkpt>
      <trkpt lat="47.13145" lon="-1.36656">
        <ele>46.898438</ele>
        <time>2017-04-07T14:24:07Z</time>
      </trkpt>
      <trkpt lat="47.13144" lon="-1.36643">
        <ele>48</ele>
        <time>2017-04-07T14:24:14Z</time>
      </trkpt>
      <trkpt lat="47.13144" lon="-1.36628">
        <ele>48.597656</ele>
        <time>2017-04-07T14:24:21Z</time>
      </trkpt>
      <trkpt lat="47.13145" lon="-1.36615">
        <ele>49</ele>
        <time>2017-04-07T14:24:28Z</time>
      </trkpt>
      <trkpt lat="47.13148" lon="-1.36601">
        <ele>48.398438</ele>
        <time>2017-04-07T14:24:35Z</time>
      </trkpt>
      <trkpt lat="47.13153" lon="-1.36574">
        <ele>48.097656</ele>
        <time>2017-04-07T14:24:49Z</time>
      </trkpt>
      <trkpt lat="47.13155" lon="-1.36559">
        <ele>47.5</ele>
        <time>2017-04-07T14:24:56Z</time>
      </trkpt>
      <trkpt lat="47.13148" lon="-1.36551">
        <ele>47.898438</ele>
        <time>2017-04-07T14:25:07Z</time>
      </trkpt>
      <trkpt lat="47.13139" lon="-1.36557">
        <ele>48.699219</ele>
        <time>2017-04-07T14:25:15Z</time>
      </trkpt>
      <trkpt lat="47.13094" lon="-1.36584">
        <ele>48.699219</ele>
        <time>2017-04-07T14:25:53Z</time>
      </trkpt>
      <trkpt lat="47.13086" lon="-1.36591">
        <ele>48.296875</ele>
        <time>2017-04-07T14:26:01Z</time>
      </trkpt>
      <trkpt lat="47.13069" lon="-1.36607">
        <ele>45.898438</ele>
        <time>2017-04-07T14:26:17Z</time>
      </trkpt>
      <trkpt lat="47.13061" lon="-1.36615">
        <ele>45.398438</ele>
        <time>2017-04-07T14:26:24Z</time>
      </trkpt>
      <trkpt lat="47.13052" lon="-1.3662">
        <ele>43.898438</ele>
        <time>2017-04-07T14:26:31Z</time>
      </trkpt>
      <trkpt lat="47.13044" lon="-1.3661">
        <ele>41.5</ele>
        <time>2017-04-07T14:26:38Z</time>
      </trkpt>
      <trkpt lat="47.13038" lon="-1.366">
        <ele>40.097656</ele>
        <time>2017-04-07T14:26:45Z</time>
      </trkpt>
      <trkpt lat="47.13027" lon="-1.36579">
        <ele>36.699219</ele>
        <time>2017-04-07T14:27:05Z</time>
      </trkpt>
      <trkpt lat="47.13019" lon="-1.3657">
        <ele>35.597656</ele>
        <time>2017-04-07T14:27:13Z</time>
      </trkpt>
      <trkpt lat="47.1301" lon="-1.36564">
        <ele>34.597656</ele>
        <time>2017-04-07T14:27:22Z</time>
      </trkpt>
      <trkpt lat="47.13001" lon="-1.36558">
        <ele>35.5</ele>
        <time>2017-04-07T14:27:31Z</time>
      </trkpt>
      <trkpt lat="47.12995" lon="-1.36547">
        <ele>34.5</ele>
        <time>2017-04-07T14:27:39Z</time>
      </trkpt>
      <trkpt lat="47.1299" lon="-1.36535">
        <ele>34</ele>
        <time>2017-04-07T14:27:47Z</time>
      </trkpt>
      <trkpt lat="47.1298" lon="-1.36511">
        <ele>36.597656</ele>
        <time>2017-04-07T14:28:02Z</time>
      </trkpt>
      <trkpt lat="47.12971" lon="-1.36484">
        <ele>37.699219</ele>
        <time>2017-04-07T14:28:16Z</time>
      </trkpt>
      <trkpt lat="47.12964" lon="-1.36475">
        <ele>34.097656</ele>
        <time>2017-04-07T14:28:23Z</time>
      </trkpt>
      <trkpt lat="47.12951" lon="-1.36454">
        <ele>30</ele>
        <time>2017-04-07T14:28:40Z</time>
      </trkpt>
      <trkpt lat="47.12943" lon="-1.36447">
        <ele>31.296875</ele>
        <time>2017-04-07T14:28:49Z</time>
      </trkpt>
      <trkpt lat="47.12934" lon="-1.36449">
        <ele>34.699219</ele>
        <time>2017-04-07T14:29:07Z</time>
      </trkpt>
      <trkpt lat="47.12925" lon="-1.36445">
        <ele>38.898438</ele>
        <time>2017-04-07T14:29:20Z</time>
      </trkpt>
      <trkpt lat="47.12905" lon="-1.3644">
        <ele>36.898438</ele>
        <time>2017-04-07T14:29:37Z</time>
      </trkpt>
      <trkpt lat="47.12896" lon="-1.36439">
        <ele>35.597656</ele>
        <time>2017-04-07T14:29:45Z</time>
      </trkpt>
      <trkpt lat="47.12888" lon="-1.36431">
        <ele>34.796875</ele>
        <time>2017-04-07T14:29:53Z</time>
      </trkpt>
      <trkpt lat="47.12879" lon="-1.36427">
        <ele>31.898438</ele>
        <time>2017-04-07T14:30:00Z</time>
      </trkpt>
      <trkpt lat="47.12869" lon="-1.36425">
        <ele>30.898438</ele>
        <time>2017-04-07T14:30:06Z</time>
      </trkpt>
      <trkpt lat="47.1284" lon="-1.36419">
        <ele>33.296875</ele>
        <time>2017-04-07T14:30:27Z</time>
      </trkpt>
      <trkpt lat="47.12831" lon="-1.36416">
        <ele>34.699219</ele>
        <time>2017-04-07T14:30:34Z</time>
      </trkpt>
      <trkpt lat="47.12813" lon="-1.36408">
        <ele>33.898438</ele>
        <time>2017-04-07T14:30:49Z</time>
      </trkpt>
      <trkpt lat="47.12804" lon="-1.36403">
        <ele>33.296875</ele>
        <time>2017-04-07T14:30:56Z</time>
      </trkpt>
      <trkpt lat="47.12796" lon="-1.36398">
        <ele>33.398438</ele>
        <time>2017-04-07T14:31:03Z</time>
      </trkpt>
      <trkpt lat="47.12787" lon="-1.36395">
        <ele>34</ele>
        <time>2017-04-07T14:31:10Z</time>
      </trkpt>
      <trkpt lat="47.1275" lon="-1.36385">
        <ele>35.796875</ele>
        <time>2017-04-07T14:31:38Z</time>
      </trkpt>
      <trkpt lat="47.12742" lon="-1.36379">
        <ele>35.597656</ele>
        <time>2017-04-07T14:31:47Z</time>
      </trkpt>
      <trkpt lat="47.12737" lon="-1.36365">
        <ele>36.5</ele>
        <time>2017-04-07T14:31:58Z</time>
      </trkpt>
      <trkpt lat="47.12731" lon="-1.36354">
        <ele>37.199219</ele>
        <time>2017-04-07T14:32:05Z</time>
      </trkpt>
      <trkpt lat="47.12705" lon="-1.36314">
        <ele>37.097656</ele>
        <time>2017-04-07T14:32:33Z</time>
      </trkpt>
      <trkpt lat="47.127" lon="-1.36302">
        <ele>38.5</ele>
        <time>2017-04-07T14:32:40Z</time>
      </trkpt>
      <trkpt lat="47.12695" lon="-1.36291">
        <ele>39.796875</ele>
        <time>2017-04-07T14:32:47Z</time>
      </trkpt>
      <trkpt lat="47.12683" lon="-1.36269">
        <ele>40.199219</ele>
        <time>2017-04-07T14:33:02Z</time>
      </trkpt>
      <trkpt lat="47.1267" lon="-1.36248">
        <ele>40.296875</ele>
        <time>2017-04-07T14:33:17Z</time>
      </trkpt>
      <trkpt lat="47.12662" lon="-1.3624">
        <ele>40.5</ele>
        <time>2017-04-07T14:33:24Z</time>
      </trkpt>
      <trkpt lat="47.12654" lon="-1.36232">
        <ele>40.699219</ele>
        <time>2017-04-07T14:33:37Z</time>
      </trkpt>
      <trkpt lat="47.12645" lon="-1.36226">
        <ele>40.796875</ele>
        <time>2017-04-07T14:33:44Z</time>
      </trkpt>
      <trkpt lat="47.12636" lon="-1.36222">
        <ele>41.597656</ele>
        <time>2017-04-07T14:33:50Z</time>
      </trkpt>
      <trkpt lat="47.12627" lon="-1.36217">
        <ele>42</ele>
        <time>2017-04-07T14:33:57Z</time>
      </trkpt>
      <trkpt lat="47.12619" lon="-1.3621">
        <ele>41.597656</ele>
        <time>2017-04-07T14:34:04Z</time>
      </trkpt>
      <trkpt lat="47.1261" lon="-1.36202">
        <ele>41</ele>
        <time>2017-04-07T14:34:11Z</time>
      </trkpt>
      <trkpt lat="47.126" lon="-1.36196">
        <ele>41.199219</ele>
        <time>2017-04-07T14:34:18Z</time>
      </trkpt>
      <trkpt lat="47.12592" lon="-1.36188">
        <ele>42.597656</ele>
        <time>2017-04-07T14:34:25Z</time>
      </trkpt>
      <trkpt lat="47.12585" lon="-1.3618">
        <ele>42.796875</ele>
        <time>2017-04-07T14:34:32Z</time>
      </trkpt>
      <trkpt lat="47.12576" lon="-1.36174">
        <ele>42.796875</ele>
        <time>2017-04-07T14:34:41Z</time>
      </trkpt>
      <trkpt lat="47.12566" lon="-1.3617">
        <ele>43.199219</ele>
        <time>2017-04-07T14:34:49Z</time>
      </trkpt>
      <trkpt lat="47.12521" lon="-1.36149">
        <ele>42.597656</ele>
        <time>2017-04-07T14:35:29Z</time>
      </trkpt>
      <trkpt lat="47.12512" lon="-1.36146">
        <ele>44.5</ele>
        <time>2017-04-07T14:35:36Z</time>
      </trkpt>
      <trkpt lat="47.12464" lon="-1.36132">
        <ele>50.199219</ele>
        <time>2017-04-07T14:36:14Z</time>
      </trkpt>
      <trkpt lat="47.1246" lon="-1.36118">
        <ele>48.296875</ele>
        <time>2017-04-07T14:36:23Z</time>
      </trkpt>
      <trkpt lat="47.12454" lon="-1.36092">
        <ele>45.296875</ele>
        <time>2017-04-07T14:36:38Z</time>
      </trkpt>
      <trkpt lat="47.12462" lon="-1.36084">
        <ele>43.398438</ele>
        <time>2017-04-07T14:36:46Z</time>
      </trkpt>
      <trkpt lat="47.12478" lon="-1.36068">
        <ele>41.5</ele>
        <time>2017-04-07T14:37:02Z</time>
      </trkpt>
      <trkpt lat="47.1248" lon="-1.36054">
        <ele>40.398438</ele>
        <time>2017-04-07T14:37:25Z</time>
      </trkpt>
      <trkpt lat="47.12479" lon="-1.3604">
        <ele>40.398438</ele>
        <time>2017-04-07T14:37:32Z</time>
      </trkpt>
      <trkpt lat="47.12477" lon="-1.35969">
        <ele>42</ele>
        <time>2017-04-07T14:38:08Z</time>
      </trkpt>
      <trkpt lat="47.12474" lon="-1.35955">
        <ele>41.898438</ele>
        <time>2017-04-07T14:38:15Z</time>
      </trkpt>
      <trkpt lat="47.12462" lon="-1.35888">
        <ele>41.199219</ele>
        <time>2017-04-07T14:38:51Z</time>
      </trkpt>
      <trkpt lat="47.12453" lon="-1.35883">
        <ele>42.699219</ele>
        <time>2017-04-07T14:39:01Z</time>
      </trkpt>
      <trkpt lat="47.12445" lon="-1.3589">
        <ele>44.5</ele>
        <time>2017-04-07T14:39:09Z</time>
      </trkpt>
      <trkpt lat="47.12412" lon="-1.35921">
        <ele>51</ele>
        <time>2017-04-07T14:39:41Z</time>
      </trkpt>
      <trkpt lat="47.12403" lon="-1.35926">
        <ele>51.796875</ele>
        <time>2017-04-07T14:39:49Z</time>
      </trkpt>
      <trkpt lat="47.12394" lon="-1.35932">
        <ele>52</ele>
        <time>2017-04-07T14:39:57Z</time>
      </trkpt>
      <trkpt lat="47.12385" lon="-1.3594">
        <ele>52.898438</ele>
        <time>2017-04-07T14:40:05Z</time>
      </trkpt>
      <trkpt lat="47.12376" lon="-1.35945">
        <ele>53.5</ele>
        <time>2017-04-07T14:40:15Z</time>
      </trkpt>
      <trkpt lat="47.12366" lon="-1.3595">
        <ele>54.699219</ele>
        <time>2017-04-07T14:40:22Z</time>
      </trkpt>
      <trkpt lat="47.12357" lon="-1.35954">
        <ele>55.398438</ele>
        <time>2017-04-07T14:40:31Z</time>
      </trkpt>
      <trkpt lat="47.12347" lon="-1.35956">
        <ele>55.398438</ele>
        <time>2017-04-07T14:40:40Z</time>
      </trkpt>
      <trkpt lat="47.12338" lon="-1.35956">
        <ele>54.199219</ele>
        <time>2017-04-07T14:40:48Z</time>
      </trkpt>
      <trkpt lat="47.12328" lon="-1.35961">
        <ele>52.097656</ele>
        <time>2017-04-07T14:40:56Z</time>
      </trkpt>
      <trkpt lat="47.12311" lon="-1.3597">
        <ele>48.597656</ele>
        <time>2017-04-07T14:41:14Z</time>
      </trkpt>
      <trkpt lat="47.12303" lon="-1.35976">
        <ele>50.796875</ele>
        <time>2017-04-07T14:41:22Z</time>
      </trkpt>
      <trkpt lat="47.12291" lon="-1.35978">
        <ele>54.332031</ele>
        <time>2017-04-07T14:41:36Z</time>
      </trkpt>
      <trkpt lat="47.12282" lon="-1.35977">
        <ele>62.097656</ele>
        <time>2017-04-07T14:42:20Z</time>
      </trkpt>
      <trkpt lat="47.12272" lon="-1.35981">
        <ele>57.699219</ele>
        <time>2017-04-07T14:44:08Z</time>
      </trkpt>
      <trkpt lat="47.12245" lon="-1.35993">
        <ele>56.898438</ele>
        <time>2017-04-07T14:44:41Z</time>
      </trkpt>
      <trkpt lat="47.12226" lon="-1.35999">
        <ele>52.296875</ele>
        <time>2017-04-07T14:44:57Z</time>
      </trkpt>
      <trkpt lat="47.1209" lon="-1.36041">
        <ele>54.597656</ele>
        <time>2017-04-07T14:46:43Z</time>
      </trkpt>
      <trkpt lat="47.1207" lon="-1.36046">
        <ele>56.199219</ele>
        <time>2017-04-07T14:46:58Z</time>
      </trkpt>
      <trkpt lat="47.12061" lon="-1.36045">
        <ele>57.699219</ele>
        <time>2017-04-07T14:47:04Z</time>
      </trkpt>
      <trkpt lat="47.12051" lon="-1.36043">
        <ele>58.597656</ele>
        <time>2017-04-07T14:47:11Z</time>
      </trkpt>
      <trkpt lat="47.12042" lon="-1.36038">
        <ele>57.199219</ele>
        <time>2017-04-07T14:47:18Z</time>
      </trkpt>
      <trkpt lat="47.12024" lon="-1.36028">
        <ele>56.699219</ele>
        <time>2017-04-07T14:47:31Z</time>
      </trkpt>
      <trkpt lat="47.12015" lon="-1.36025">
        <ele>58.597656</ele>
        <time>2017-04-07T14:47:36Z</time>
      </trkpt>
      <trkpt lat="47.12005" lon="-1.3602">
        <ele>56.699219</ele>
        <time>2017-04-07T14:47:42Z</time>
      </trkpt>
      <trkpt lat="47.11996" lon="-1.36015">
        <ele>56.296875</ele>
        <time>2017-04-07T14:47:51Z</time>
      </trkpt>
      <trkpt lat="47.11971" lon="-1.35995">
        <ele>54</ele>
        <time>2017-04-07T14:48:10Z</time>
      </trkpt>
      <trkpt lat="47.11962" lon="-1.3599">
        <ele>54.5</ele>
        <time>2017-04-07T14:48:16Z</time>
      </trkpt>
      <trkpt lat="47.11953" lon="-1.35987">
        <ele>56.5</ele>
        <time>2017-04-07T14:48:23Z</time>
      </trkpt>
      <trkpt lat="47.11942" lon="-1.35985">
        <ele>58.699219</ele>
        <time>2017-04-07T14:48:31Z</time>
      </trkpt>
      <trkpt lat="47.11915" lon="-1.35984">
        <ele>70.296875</ele>
        <time>2017-04-07T14:48:50Z</time>
      </trkpt>
      <trkpt lat="47.11905" lon="-1.35979">
        <ele>70.335938</ele>
        <time>2017-04-07T14:48:57Z</time>
      </trkpt>
      <trkpt lat="47.11896" lon="-1.35976">
        <ele>67.699219</ele>
        <time>2017-04-07T14:49:12Z</time>
      </trkpt>
      <trkpt lat="47.11888" lon="-1.35984">
        <ele>67.097656</ele>
        <time>2017-04-07T14:49:22Z</time>
      </trkpt>
      <trkpt lat="47.11881" lon="-1.35994">
        <ele>65.699219</ele>
        <time>2017-04-07T14:49:31Z</time>
      </trkpt>
      <trkpt lat="47.11873" lon="-1.36003">
        <ele>67.597656</ele>
        <time>2017-04-07T14:49:39Z</time>
      </trkpt>
      <trkpt lat="47.11864" lon="-1.36009">
        <ele>67.597656</ele>
        <time>2017-04-07T14:49:47Z</time>
      </trkpt>
      <trkpt lat="47.11855" lon="-1.3601">
        <ele>67.199219</ele>
        <time>2017-04-07T14:49:54Z</time>
      </trkpt>
      <trkpt lat="47.11846" lon="-1.36015">
        <ele>68.5</ele>
        <time>2017-04-07T14:50:01Z</time>
      </trkpt>
      <trkpt lat="47.11819" lon="-1.36031">
        <ele>69.398438</ele>
        <time>2017-04-07T14:50:21Z</time>
      </trkpt>
      <trkpt lat="47.1181" lon="-1.36032">
        <ele>65</ele>
        <time>2017-04-07T14:50:29Z</time>
      </trkpt>
      <trkpt lat="47.118" lon="-1.36034">
        <ele>62.597656</ele>
        <time>2017-04-07T14:50:36Z</time>
      </trkpt>
      <trkpt lat="47.11791" lon="-1.36037">
        <ele>63.5</ele>
        <time>2017-04-07T14:50:43Z</time>
      </trkpt>
      <trkpt lat="47.11773" lon="-1.36045">
        <ele>62.5</ele>
        <time>2017-04-07T14:50:57Z</time>
      </trkpt>
      <trkpt lat="47.11763" lon="-1.36049">
        <ele>57.796875</ele>
        <time>2017-04-07T14:51:05Z</time>
      </trkpt>
      <trkpt lat="47.11751" lon="-1.36053">
        <ele>57</ele>
        <time>2017-04-07T14:51:28Z</time>
      </trkpt>
      <trkpt lat="47.11743" lon="-1.3606">
        <ele>58.5</ele>
        <time>2017-04-07T14:51:40Z</time>
      </trkpt>
      <trkpt lat="47.11736" lon="-1.36069">
        <ele>60.898438</ele>
        <time>2017-04-07T14:51:47Z</time>
      </trkpt>
      <trkpt lat="47.11728" lon="-1.36077">
        <ele>63.097656</ele>
        <time>2017-04-07T14:51:55Z</time>
      </trkpt>
      <trkpt lat="47.11704" lon="-1.36099">
        <ele>63.296875</ele>
        <time>2017-04-07T14:52:18Z</time>
      </trkpt>
      <trkpt lat="47.11669" lon="-1.36125">
        <ele>61.597656</ele>
        <time>2017-04-07T14:52:48Z</time>
      </trkpt>
      <trkpt lat="47.11607" lon="-1.36166">
        <ele>62.296875</ele>
        <time>2017-04-07T14:53:35Z</time>
      </trkpt>
      <trkpt lat="47.11525" lon="-1.36214">
        <ele>61</ele>
        <time>2017-04-07T14:54:38Z</time>
      </trkpt>
      <trkpt lat="47.11506" lon="-1.36223">
        <ele>60.796875</ele>
        <time>2017-04-07T14:54:58Z</time>
      </trkpt>
      <trkpt lat="47.11499" lon="-1.36213">
        <ele>57</ele>
        <time>2017-04-07T14:55:07Z</time>
      </trkpt>
      <trkpt lat="47.11499" lon="-1.36199">
        <ele>52.898438</ele>
        <time>2017-04-07T14:55:14Z</time>
      </trkpt>
      <trkpt lat="47.11497" lon="-1.36098">
        <ele>42.398438</ele>
        <time>2017-04-07T14:56:03Z</time>
      </trkpt>
      <trkpt lat="47.11493" lon="-1.36056">
        <ele>41.898438</ele>
        <time>2017-04-07T14:56:24Z</time>
      </trkpt>
      <trkpt lat="47.11484" lon="-1.35985">
        <ele>42.296875</ele>
        <time>2017-04-07T14:57:00Z</time>
      </trkpt>
      <trkpt lat="47.11482" lon="-1.35972">
        <ele>41.699219</ele>
        <time>2017-04-07T14:57:08Z</time>
      </trkpt>
      <trkpt lat="47.11477" lon="-1.3596">
        <ele>42.097656</ele>
        <time>2017-04-07T14:57:15Z</time>
      </trkpt>
      <trkpt lat="47.11471" lon="-1.3595">
        <ele>43</ele>
        <time>2017-04-07T14:57:22Z</time>
      </trkpt>
      <trkpt lat="47.1147" lon="-1.35935">
        <ele>44</ele>
        <time>2017-04-07T14:57:32Z</time>
      </trkpt>
      <trkpt lat="47.11465" lon="-1.35923">
        <ele>46.898438</ele>
        <time>2017-04-07T14:57:39Z</time>
      </trkpt>
      <trkpt lat="47.11459" lon="-1.35912">
        <ele>47.296875</ele>
        <time>2017-04-07T14:57:47Z</time>
      </trkpt>
      <trkpt lat="47.11452" lon="-1.35901">
        <ele>47.699219</ele>
        <time>2017-04-07T14:57:54Z</time>
      </trkpt>
      <trkpt lat="47.11448" lon="-1.35888">
        <ele>48.796875</ele>
        <time>2017-04-07T14:58:00Z</time>
      </trkpt>
      <trkpt lat="47.11437" lon="-1.35845">
        <ele>53.5</ele>
        <time>2017-04-07T14:58:21Z</time>
      </trkpt>
      <trkpt lat="47.11429" lon="-1.35803">
        <ele>54.796875</ele>
        <time>2017-04-07T14:58:45Z</time>
      </trkpt>
      <trkpt lat="47.11423" lon="-1.35791">
        <ele>53.597656</ele>
        <time>2017-04-07T14:58:53Z</time>
      </trkpt>
      <trkpt lat="47.11417" lon="-1.35782">
        <ele>51.699219</ele>
        <time>2017-04-07T14:59:01Z</time>
      </trkpt>
      <trkpt lat="47.11414" lon="-1.3577">
        <ele>51</ele>
        <time>2017-04-07T14:59:08Z</time>
      </trkpt>
      <trkpt lat="47.11408" lon="-1.35757">
        <ele>53.5</ele>
        <time>2017-04-07T14:59:16Z</time>
      </trkpt>
      <trkpt lat="47.11403" lon="-1.35746">
        <ele>55.597656</ele>
        <time>2017-04-07T14:59:23Z</time>
      </trkpt>
      <trkpt lat="47.11394" lon="-1.35721">
        <ele>54.597656</ele>
        <time>2017-04-07T14:59:38Z</time>
      </trkpt>
      <trkpt lat="47.11387" lon="-1.35711">
        <ele>55.097656</ele>
        <time>2017-04-07T14:59:45Z</time>
      </trkpt>
      <trkpt lat="47.11382" lon="-1.35699">
        <ele>55.296875</ele>
        <time>2017-04-07T14:59:52Z</time>
      </trkpt>
      <trkpt lat="47.11373" lon="-1.35675">
        <ele>49.597656</ele>
        <time>2017-04-07T15:00:06Z</time>
      </trkpt>
      <trkpt lat="47.1137" lon="-1.35662">
        <ele>47.898438</ele>
        <time>2017-04-07T15:00:14Z</time>
      </trkpt>
      <trkpt lat="47.11368" lon="-1.35648">
        <ele>50.699219</ele>
        <time>2017-04-07T15:00:23Z</time>
      </trkpt>
      <trkpt lat="47.11367" lon="-1.35619">
        <ele>53.097656</ele>
        <time>2017-04-07T15:00:39Z</time>
      </trkpt>
      <trkpt lat="47.11368" lon="-1.35591">
        <ele>52.097656</ele>
        <time>2017-04-07T15:00:55Z</time>
      </trkpt>
      <trkpt lat="47.11366" lon="-1.35576">
        <ele>50.296875</ele>
        <time>2017-04-07T15:01:06Z</time>
      </trkpt>
      <trkpt lat="47.11365" lon="-1.35562">
        <ele>48.796875</ele>
        <time>2017-04-07T15:01:13Z</time>
      </trkpt>
      <trkpt lat="47.11367" lon="-1.35547">
        <ele>47.296875</ele>
        <time>2017-04-07T15:01:20Z</time>
      </trkpt>
      <trkpt lat="47.1137" lon="-1.35533">
        <ele>44.5</ele>
        <time>2017-04-07T15:01:27Z</time>
      </trkpt>
      <trkpt lat="47.11386" lon="-1.35466">
        <ele>38.699219</ele>
        <time>2017-04-07T15:02:05Z</time>
      </trkpt>
      <trkpt lat="47.11393" lon="-1.35456">
        <ele>39.097656</ele>
        <time>2017-04-07T15:02:12Z</time>
      </trkpt>
      <trkpt lat="47.11402" lon="-1.35456">
        <ele>40.199219</ele>
        <time>2017-04-07T15:02:22Z</time>
      </trkpt>
      <trkpt lat="47.11412" lon="-1.35459">
        <ele>42.097656</ele>
        <time>2017-04-07T15:02:30Z</time>
      </trkpt>
      <trkpt lat="47.11421" lon="-1.35463">
        <ele>42.097656</ele>
        <time>2017-04-07T15:02:38Z</time>
      </trkpt>
      <trkpt lat="47.1143" lon="-1.35468">
        <ele>41.597656</ele>
        <time>2017-04-07T15:02:46Z</time>
      </trkpt>
      <trkpt lat="47.1144" lon="-1.35475">
        <ele>42.097656</ele>
        <time>2017-04-07T15:02:54Z</time>
      </trkpt>
      <trkpt lat="47.11508" lon="-1.35524">
        <ele>43.796875</ele>
        <time>2017-04-07T15:03:50Z</time>
      </trkpt>
      <trkpt lat="47.11518" lon="-1.35529">
        <ele>43.199219</ele>
        <time>2017-04-07T15:03:57Z</time>
      </trkpt>
      <trkpt lat="47.11564" lon="-1.35545">
        <ele>43.296875</ele>
        <time>2017-04-07T15:04:34Z</time>
      </trkpt>
      <trkpt lat="47.11573" lon="-1.35547">
        <ele>43.097656</ele>
        <time>2017-04-07T15:04:43Z</time>
      </trkpt>
      <trkpt lat="47.11582" lon="-1.35551">
        <ele>43.898438</ele>
        <time>2017-04-07T15:04:55Z</time>
      </trkpt>
      <trkpt lat="47.11592" lon="-1.35553">
        <ele>43.597656</ele>
        <time>2017-04-07T15:05:03Z</time>
      </trkpt>
      <trkpt lat="47.1162" lon="-1.35556">
        <ele>42.097656</ele>
        <time>2017-04-07T15:05:24Z</time>
      </trkpt>
      <trkpt lat="47.1164" lon="-1.35557">
        <ele>42.5</ele>
        <time>2017-04-07T15:05:43Z</time>
      </trkpt>
      <trkpt lat="47.1165" lon="-1.35556">
        <ele>44.097656</ele>
        <time>2017-04-07T15:05:51Z</time>
      </trkpt>
      <trkpt lat="47.1169" lon="-1.35547">
        <ele>44</ele>
        <time>2017-04-07T15:06:21Z</time>
      </trkpt>
      <trkpt lat="47.11699" lon="-1.35547">
        <ele>42</ele>
        <time>2017-04-07T15:06:28Z</time>
      </trkpt>
      <trkpt lat="47.11706" lon="-1.35556">
        <ele>41.398438</ele>
        <time>2017-04-07T15:06:36Z</time>
      </trkpt>
      <trkpt lat="47.11711" lon="-1.35569">
        <ele>43</ele>
        <time>2017-04-07T15:06:44Z</time>
      </trkpt>
      <trkpt lat="47.11717" lon="-1.3558">
        <ele>43.5</ele>
        <time>2017-04-07T15:06:52Z</time>
      </trkpt>
      <trkpt lat="47.11724" lon="-1.35592">
        <ele>45.199219</ele>
        <time>2017-04-07T15:07:00Z</time>
      </trkpt>
      <trkpt lat="47.11731" lon="-1.35601">
        <ele>46.796875</ele>
        <time>2017-04-07T15:07:08Z</time>
      </trkpt>
      <trkpt lat="47.1174" lon="-1.35609">
        <ele>47.699219</ele>
        <time>2017-04-07T15:07:16Z</time>
      </trkpt>
      <trkpt lat="47.11748" lon="-1.35614">
        <ele>47.796875</ele>
        <time>2017-04-07T15:07:23Z</time>
      </trkpt>
      <trkpt lat="47.11757" lon="-1.35618">
        <ele>48.699219</ele>
        <time>2017-04-07T15:07:30Z</time>
      </trkpt>
      <trkpt lat="47.11766" lon="-1.3562">
        <ele>47.699219</ele>
        <time>2017-04-07T15:07:37Z</time>
      </trkpt>
      <trkpt lat="47.11776" lon="-1.3562">
        <ele>47.5</ele>
        <time>2017-04-07T15:07:44Z</time>
      </trkpt>
      <trkpt lat="47.11786" lon="-1.35619">
        <ele>48.597656</ele>
        <time>2017-04-07T15:07:52Z</time>
      </trkpt>
      <trkpt lat="47.11796" lon="-1.35616">
        <ele>49</ele>
        <time>2017-04-07T15:08:00Z</time>
      </trkpt>
      <trkpt lat="47.11806" lon="-1.35616">
        <ele>50.296875</ele>
        <time>2017-04-07T15:08:07Z</time>
      </trkpt>
      <trkpt lat="47.11816" lon="-1.35613">
        <ele>49.796875</ele>
        <time>2017-04-07T15:08:15Z</time>
      </trkpt>
      <trkpt lat="47.11824" lon="-1.35606">
        <ele>48.199219</ele>
        <time>2017-04-07T15:08:23Z</time>
      </trkpt>
      <trkpt lat="47.11841" lon="-1.35594">
        <ele>47.199219</ele>
        <time>2017-04-07T15:08:41Z</time>
      </trkpt>
      <trkpt lat="47.1186" lon="-1.35585">
        <ele>47.296875</ele>
        <time>2017-04-07T15:09:42Z</time>
      </trkpt>
      <trkpt lat="47.11887" lon="-1.35572">
        <ele>51.097656</ele>
        <time>2017-04-07T15:10:04Z</time>
      </trkpt>
      <trkpt lat="47.11896" lon="-1.35566">
        <ele>51.296875</ele>
        <time>2017-04-07T15:10:12Z</time>
      </trkpt>
      <trkpt lat="47.11905" lon="-1.3556">
        <ele>50.199219</ele>
        <time>2017-04-07T15:10:20Z</time>
      </trkpt>
      <trkpt lat="47.11923" lon="-1.35551">
        <ele>53.296875</ele>
        <time>2017-04-07T15:10:35Z</time>
      </trkpt>
      <trkpt lat="47.1195" lon="-1.35538">
        <ele>52.597656</ele>
        <time>2017-04-07T15:10:57Z</time>
      </trkpt>
      <trkpt lat="47.11968" lon="-1.35526">
        <ele>51.898438</ele>
        <time>2017-04-07T15:11:11Z</time>
      </trkpt>
      <trkpt lat="47.11976" lon="-1.35519">
        <ele>50.398438</ele>
        <time>2017-04-07T15:11:18Z</time>
      </trkpt>
      <trkpt lat="47.11986" lon="-1.35515">
        <ele>49.199219</ele>
        <time>2017-04-07T15:11:25Z</time>
      </trkpt>
      <trkpt lat="47.11995" lon="-1.35509">
        <ele>48.296875</ele>
        <time>2017-04-07T15:11:32Z</time>
      </trkpt>
      <trkpt lat="47.12003" lon="-1.35502">
        <ele>48.199219</ele>
        <time>2017-04-07T15:11:39Z</time>
      </trkpt>
      <trkpt lat="47.1202" lon="-1.35488">
        <ele>46.5</ele>
        <time>2017-04-07T15:11:54Z</time>
      </trkpt>
      <trkpt lat="47.12072" lon="-1.35446">
        <ele>50.199219</ele>
        <time>2017-04-07T15:12:39Z</time>
      </trkpt>
      <trkpt lat="47.12081" lon="-1.35442">
        <ele>48</ele>
        <time>2017-04-07T15:12:47Z</time>
      </trkpt>
      <trkpt lat="47.12089" lon="-1.3545">
        <ele>49.398438</ele>
        <time>2017-04-07T15:13:46Z</time>
      </trkpt>
      <trkpt lat="47.12095" lon="-1.3546">
        <ele>51.398438</ele>
        <time>2017-04-07T15:13:57Z</time>
      </trkpt>
      <trkpt lat="47.12101" lon="-1.35446">
        <ele>56.199219</ele>
        <time>2017-04-07T15:14:11Z</time>
      </trkpt>
      <trkpt lat="47.12095" lon="-1.35457">
        <ele>61.5</ele>
        <time>2017-04-07T15:14:21Z</time>
      </trkpt>
      <trkpt lat="47.12089" lon="-1.35446">
        <ele>54.398438</ele>
        <time>2017-04-07T15:15:57Z</time>
      </trkpt>
      <trkpt lat="47.12096" lon="-1.35435">
        <ele>52.398438</ele>
        <time>2017-04-07T15:16:14Z</time>
      </trkpt>
      <trkpt lat="47.12105" lon="-1.35428">
        <ele>50</ele>
        <time>2017-04-07T15:16:22Z</time>
      </trkpt>
      <trkpt lat="47.12113" lon="-1.35422">
        <ele>46.199219</ele>
        <time>2017-04-07T15:16:30Z</time>
      </trkpt>
      <trkpt lat="47.12139" lon="-1.35406">
        <ele>46.699219</ele>
        <time>2017-04-07T15:16:52Z</time>
      </trkpt>
      <trkpt lat="47.12165" lon="-1.35394">
        <ele>51.296875</ele>
        <time>2017-04-07T15:17:13Z</time>
      </trkpt>
      <trkpt lat="47.12247" lon="-1.35354">
        <ele>53.699219</ele>
        <time>2017-04-07T15:18:18Z</time>
      </trkpt>
      <trkpt lat="47.12264" lon="-1.35343">
        <ele>54.296875</ele>
        <time>2017-04-07T15:18:32Z</time>
      </trkpt>
      <trkpt lat="47.12274" lon="-1.35338">
        <ele>54.296875</ele>
        <time>2017-04-07T15:18:40Z</time>
      </trkpt>
      <trkpt lat="47.12319" lon="-1.35317">
        <ele>49.5</ele>
        <time>2017-04-07T15:19:15Z</time>
      </trkpt>
      <trkpt lat="47.12338" lon="-1.35313">
        <ele>45.296875</ele>
        <time>2017-04-07T15:19:29Z</time>
      </trkpt>
      <trkpt lat="47.12358" lon="-1.35311">
        <ele>45</ele>
        <time>2017-04-07T15:19:45Z</time>
      </trkpt>
      <trkpt lat="47.12367" lon="-1.35307">
        <ele>44.898438</ele>
        <time>2017-04-07T15:19:52Z</time>
      </trkpt>
      <trkpt lat="47.12385" lon="-1.353">
        <ele>45.199219</ele>
        <time>2017-04-07T15:20:06Z</time>
      </trkpt>
      <trkpt lat="47.12394" lon="-1.35294">
        <ele>44.796875</ele>
        <time>2017-04-07T15:20:13Z</time>
      </trkpt>
      <trkpt lat="47.12411" lon="-1.35281">
        <ele>43.898438</ele>
        <time>2017-04-07T15:20:28Z</time>
      </trkpt>
      <trkpt lat="47.12419" lon="-1.35274">
        <ele>41.097656</ele>
        <time>2017-04-07T15:20:35Z</time>
      </trkpt>
      <trkpt lat="47.12435" lon="-1.35259">
        <ele>34.898438</ele>
        <time>2017-04-07T15:20:50Z</time>
      </trkpt>
      <trkpt lat="47.12467" lon="-1.35228">
        <ele>36.5</ele>
        <time>2017-04-07T15:21:19Z</time>
      </trkpt>
      <trkpt lat="47.12477" lon="-1.35222">
        <ele>38.699219</ele>
        <time>2017-04-07T15:21:27Z</time>
      </trkpt>
      <trkpt lat="47.12486" lon="-1.35217">
        <ele>39</ele>
        <time>2017-04-07T15:21:34Z</time>
      </trkpt>
      <trkpt lat="47.12522" lon="-1.35199">
        <ele>41.5</ele>
        <time>2017-04-07T15:22:00Z</time>
      </trkpt>
      <trkpt lat="47.12541" lon="-1.35192">
        <ele>40.398438</ele>
        <time>2017-04-07T15:22:14Z</time>
      </trkpt>
      <trkpt lat="47.12559" lon="-1.35187">
        <ele>40.097656</ele>
        <time>2017-04-07T15:22:28Z</time>
      </trkpt>
      <trkpt lat="47.1258" lon="-1.35184">
        <ele>39.898438</ele>
        <time>2017-04-07T15:22:44Z</time>
      </trkpt>
      <trkpt lat="47.12656" lon="-1.35175">
        <ele>39.296875</ele>
        <time>2017-04-07T15:23:43Z</time>
      </trkpt>
      <trkpt lat="47.12674" lon="-1.3517">
        <ele>38.796875</ele>
        <time>2017-04-07T15:23:57Z</time>
      </trkpt>
      <trkpt lat="47.12683" lon="-1.35165">
        <ele>39.597656</ele>
        <time>2017-04-07T15:24:04Z</time>
      </trkpt>
      <trkpt lat="47.12691" lon="-1.35158">
        <ele>38.699219</ele>
        <time>2017-04-07T15:24:11Z</time>
      </trkpt>
      <trkpt lat="47.12698" lon="-1.3515">
        <ele>36.898438</ele>
        <time>2017-04-07T15:24:18Z</time>
      </trkpt>
      <trkpt lat="47.12713" lon="-1.35133">
        <ele>37.398438</ele>
        <time>2017-04-07T15:24:33Z</time>
      </trkpt>
      <trkpt lat="47.12721" lon="-1.35126">
        <ele>37.097656</ele>
        <time>2017-04-07T15:24:40Z</time>
      </trkpt>
      <trkpt lat="47.12805" lon="-1.35052">
        <ele>37.199219</ele>
        <time>2017-04-07T15:26:37Z</time>
      </trkpt>
      <trkpt lat="47.12812" lon="-1.35044">
        <ele>37.5</ele>
        <time>2017-04-07T15:26:44Z</time>
      </trkpt>
      <trkpt lat="47.1282" lon="-1.35036">
        <ele>38.699219</ele>
        <time>2017-04-07T15:26:51Z</time>
      </trkpt>
      <trkpt lat="47.12853" lon="-1.35008">
        <ele>39.796875</ele>
        <time>2017-04-07T15:27:21Z</time>
      </trkpt>
      <trkpt lat="47.12861" lon="-1.35">
        <ele>39.5</ele>
        <time>2017-04-07T15:27:28Z</time>
      </trkpt>
      <trkpt lat="47.12875" lon="-1.34982">
        <ele>36.597656</ele>
        <time>2017-04-07T15:27:42Z</time>
      </trkpt>
      <trkpt lat="47.12918" lon="-1.34929">
        <ele>35.296875</ele>
        <time>2017-04-07T15:28:25Z</time>
      </trkpt>
      <trkpt lat="47.12927" lon="-1.34925">
        <ele>36.199219</ele>
        <time>2017-04-07T15:28:32Z</time>
      </trkpt>
      <trkpt lat="47.12933" lon="-1.34936">
        <ele>35.699219</ele>
        <time>2017-04-07T15:28:40Z</time>
      </trkpt>
      <trkpt lat="47.12938" lon="-1.34948">
        <ele>36</ele>
        <time>2017-04-07T15:28:48Z</time>
      </trkpt>
      <trkpt lat="47.12963" lon="-1.35023">
        <ele>33</ele>
        <time>2017-04-07T15:29:30Z</time>
      </trkpt>
      <trkpt lat="47.12971" lon="-1.35049">
        <ele>31.796875</ele>
        <time>2017-04-07T15:29:46Z</time>
      </trkpt>
      <trkpt lat="47.12974" lon="-1.35063">
        <ele>29.898438</ele>
        <time>2017-04-07T15:29:54Z</time>
      </trkpt>
      <trkpt lat="47.12985" lon="-1.35118">
        <ele>31.296875</ele>
        <time>2017-04-07T15:30:26Z</time>
      </trkpt>
      <trkpt lat="47.12986" lon="-1.35132">
        <ele>31.199219</ele>
        <time>2017-04-07T15:30:33Z</time>
      </trkpt>
      <trkpt lat="47.12984" lon="-1.35145">
        <ele>32.699219</ele>
        <time>2017-04-07T15:30:40Z</time>
      </trkpt>
      <trkpt lat="47.12992" lon="-1.35152">
        <ele>36.5</ele>
        <time>2017-04-07T15:30:52Z</time>
      </trkpt>
      <trkpt lat="47.12995" lon="-1.35167">
        <ele>41.398438</ele>
        <time>2017-04-07T15:31:02Z</time>
      </trkpt>
      <trkpt lat="47.13001" lon="-1.35178">
        <ele>45.597656</ele>
        <time>2017-04-07T15:31:09Z</time>
      </trkpt>
      <trkpt lat="47.13006" lon="-1.3519">
        <ele>44.296875</ele>
        <time>2017-04-07T15:31:15Z</time>
      </trkpt>
      <trkpt lat="47.1301" lon="-1.35204">
        <ele>44.597656</ele>
        <time>2017-04-07T15:31:23Z</time>
      </trkpt>
      <trkpt lat="47.13012" lon="-1.35218">
        <ele>44.5</ele>
        <time>2017-04-07T15:31:30Z</time>
      </trkpt>
      <trkpt lat="47.13016" lon="-1.35232">
        <ele>40.296875</ele>
        <time>2017-04-07T15:31:37Z</time>
      </trkpt>
      <trkpt lat="47.1302" lon="-1.35244">
        <ele>35.597656</ele>
        <time>2017-04-07T15:31:49Z</time>
      </trkpt>
      <trkpt lat="47.13029" lon="-1.3525">
        <ele>29.898438</ele>
        <time>2017-04-07T15:32:02Z</time>
      </trkpt>
      <trkpt lat="47.13038" lon="-1.35247">
        <ele>29.5</ele>
        <time>2017-04-07T15:32:13Z</time>
      </trkpt>
      <trkpt lat="47.13055" lon="-1.3524">
        <ele>29</ele>
        <time>2017-04-07T15:32:31Z</time>
      </trkpt>
      <trkpt lat="47.13064" lon="-1.35234">
        <ele>27.898438</ele>
        <time>2017-04-07T15:32:40Z</time>
      </trkpt>
      <trkpt lat="47.13073" lon="-1.3523">
        <ele>25.898438</ele>
        <time>2017-04-07T15:32:48Z</time>
      </trkpt>
      <trkpt lat="47.13092" lon="-1.35223">
        <ele>26.5</ele>
        <time>2017-04-07T15:33:04Z</time>
      </trkpt>
      <trkpt lat="47.13101" lon="-1.35223">
        <ele>29.296875</ele>
        <time>2017-04-07T15:33:11Z</time>
      </trkpt>
      <trkpt lat="47.13106" lon="-1.35236">
        <ele>33.5</ele>
        <time>2017-04-07T15:33:19Z</time>
      </trkpt>
      <trkpt lat="47.13109" lon="-1.3525">
        <ele>36.699219</ele>
        <time>2017-04-07T15:33:27Z</time>
      </trkpt>
      <trkpt lat="47.13116" lon="-1.35277">
        <ele>42.199219</ele>
        <time>2017-04-07T15:33:43Z</time>
      </trkpt>
      <trkpt lat="47.1312" lon="-1.35289">
        <ele>45.597656</ele>
        <time>2017-04-07T15:33:50Z</time>
      </trkpt>
      <trkpt lat="47.13125" lon="-1.353">
        <ele>46.199219</ele>
        <time>2017-04-07T15:33:57Z</time>
      </trkpt>
      <trkpt lat="47.13127" lon="-1.35315">
        <ele>45.398438</ele>
        <time>2017-04-07T15:34:05Z</time>
      </trkpt>
      <trkpt lat="47.13127" lon="-1.3533">
        <ele>42.398438</ele>
        <time>2017-04-07T15:34:13Z</time>
      </trkpt>
      <trkpt lat="47.13123" lon="-1.35342">
        <ele>40.398438</ele>
        <time>2017-04-07T15:34:20Z</time>
      </trkpt>
      <trkpt lat="47.13119" lon="-1.35355">
        <ele>38.296875</ele>
        <time>2017-04-07T15:34:28Z</time>
      </trkpt>
      <trkpt lat="47.1312" lon="-1.3537">
        <ele>37.898438</ele>
        <time>2017-04-07T15:34:37Z</time>
      </trkpt>
      <trkpt lat="47.13123" lon="-1.35383">
        <ele>36.296875</ele>
        <time>2017-04-07T15:34:44Z</time>
      </trkpt>
      <trkpt lat="47.13127" lon="-1.35395">
        <ele>32.296875</ele>
        <time>2017-04-07T15:34:52Z</time>
      </trkpt>
      <trkpt lat="47.13135" lon="-1.35403">
        <ele>30.296875</ele>
        <time>2017-04-07T15:35:00Z</time>
      </trkpt>
      <trkpt lat="47.13141" lon="-1.35415">
        <ele>29.199219</ele>
        <time>2017-04-07T15:35:08Z</time>
      </trkpt>
      <trkpt lat="47.13145" lon="-1.35427">
        <ele>28.398438</ele>
        <time>2017-04-07T15:35:16Z</time>
      </trkpt>
      <trkpt lat="47.13151" lon="-1.35427">
        <ele>25.109375</ele>
        <time>2017-04-07T15:36:31Z</time>
      </trkpt>
    </trkseg>
  </trk>
</gpx>